Flight Track Log - Related Links

Times and Time Zones

All times are in EDT time to prevent confusion due to time zone crossing. See the ASQ4209 flight status page for this flight to view local times or setup timezone preferences in your user account.

Time Position Orientation Groundspeed Altitude Reporting Facility
EDT Latitude Longitude Course Direction KTS MPH feet Rate Location/Type
Thu 07:37:54 PM 30.5750 -96.3581 63° Northeast 151 174 1,000  Level Houston Center
Thu 07:38:13 PM 30.5603 -96.3547 169° South 161 185 2,000 2,000 Climbing Houston Center
Thu 07:39:09 PM 30.5053 -96.3425 169° South 215 247 3,500 2,262 Climbing Houston Center
Thu 07:40:15 PM 30.4258 -96.3286 171° South 257 296 6,600 1,694 Climbing Houston Center
Thu 07:41:00 PM 30.4690 -96.1593 81° East  Level Estimated
Thu 07:41:13 PM 30.3931 -96.2683 122° Southeast 275 316 7,000  Level Houston Center
Thu 07:42:00 PM 30.4390 -96.1083 139° Southeast  Level Estimated
Thu 07:42:15 PM 30.4069 -96.1831 79° East 268 308 7,000  Level Houston Center
Thu 07:43:00 PM 30.4634 -96.0534 63° Northeast  Level FlightAware Approximate
Thu 07:43:17 PM 30.4200 -96.0956 80° East 272 313 7,000  Level Houston Center
Thu 07:44:19 PM 30.4336 -95.9992 81° East 268 308 7,000  Level Houston Center
Thu 07:45:21 PM 30.4450 -95.9125 81° East 255 293 7,000  Level Houston Center
Thu 07:46:22 PM 30.3922 -95.8847 156° South 230 265 7,000  Level Houston Center
Thu 07:47:24 PM 30.3253 -95.8875 182° South 260 299 7,000  Level Houston Center
Thu 07:48:25 PM 30.2825 -95.8297 131° Southeast 261 300 7,000 -393 Level Houston Center
Thu 07:49:26 PM 30.2392 -95.7694 130° Southeast 256 295 6,200 -619 Descending Houston Center
Thu 07:50:31 PM 30.1961 -95.7103 130° Southeast 261 300 5,700 -689 Descending Houston Center
Thu 07:51:28 PM 30.1336 -95.6439 137° Southeast 259 298 4,800 -763 Descending Houston Center
Thu 07:52:29 PM 30.0750 -95.5978 146° Southeast 255 293 4,200 -732 Descending Houston Center
Thu 07:53:31 PM 30.0161 -95.5494 145° Southeast 253 291 3,300 -871 Descending Houston Center

Login

Don't have an account? Register now (free) for customized features, flight alerts, and more!